sensor_id;sensor_type;location;lat;lon;timestamp;P1;durP1;ratioP1;P2;durP2;ratioP2
55330;SDS011;58851;42.984;20.336;2022-11-14T00:00:39;117.07;;;75.28;;
55330;SDS011;58851;42.984;20.336;2022-11-14T00:03:07;118.60;;;74.43;;
55330;SDS011;58851;42.984;20.336;2022-11-14T00:05:37;119.70;;;75.68;;
55330;SDS011;58851;42.984;20.336;2022-11-14T00:08:17;139.85;;;84.13;;
55330;SDS011;58851;42.984;20.336;2022-11-14T00:10:45;133.60;;;84.22;;
55330;SDS011;58851;42.984;20.336;2022-11-14T00:13:12;140.73;;;90.35;;
55330;SDS011;58851;42.984;20.336;2022-11-14T00:15:38;201.00;;;126.68;;
55330;SDS011;58851;42.984;20.336;2022-11-14T00:18:04;221.98;;;131.02;;
55330;SDS011;58851;42.984;20.336;2022-11-14T00:20:30;167.55;;;105.53;;
55330;SDS011;58851;42.984;20.336;2022-11-14T00:22:56;128.73;;;80.43;;
55330;SDS011;58851;42.984;20.336;2022-11-14T00:25:22;125.75;;;79.88;;
55330;SDS011;58851;42.984;20.336;2022-11-14T00:27:48;136.77;;;88.68;;
55330;SDS011;58851;42.984;20.336;2022-11-14T00:30:16;152.65;;;92.22;;
55330;SDS011;58851;42.984;20.336;2022-11-14T00:32:42;151.88;;;92.82;;
55330;SDS011;58851;42.984;20.336;2022-11-14T00:35:08;169.20;;;103.93;;
55330;SDS011;58851;42.984;20.336;2022-11-14T00:37:34;177.88;;;103.55;;
55330;SDS011;58851;42.984;20.336;2022-11-14T00:40:00;161.93;;;102.30;;
55330;SDS011;58851;42.984;20.336;2022-11-14T00:42:26;175.57;;;110.65;;
55330;SDS011;58851;42.984;20.336;2022-11-14T00:44:52;174.48;;;111.25;;
55330;SDS011;58851;42.984;20.336;2022-11-14T00:47:17;160.20;;;102.13;;
55330;SDS011;58851;42.984;20.336;2022-11-14T00:49:43;106.30;;;71.63;;
55330;SDS011;58851;42.984;20.336;2022-11-14T00:52:09;70.25;;;48.45;;
55330;SDS011;58851;42.984;20.336;2022-11-14T00:54:35;88.90;;;55.15;;
55330;SDS011;58851;42.984;20.336;2022-11-14T00:57:01;90.80;;;55.35;;
55330;SDS011;58851;42.984;20.336;2022-11-14T00:59:26;91.90;;;58.70;;
55330;SDS011;58851;42.984;20.336;2022-11-14T01:01:52;100.78;;;61.33;;
55330;SDS011;58851;42.984;20.336;2022-11-14T01:04:18;104.70;;;60.95;;
55330;SDS011;58851;42.984;20.336;2022-11-14T01:06:44;104.95;;;61.85;;
55330;SDS011;58851;42.984;20.336;2022-11-14T01:09:09;114.93;;;66.30;;
55330;SDS011;58851;42.984;20.336;2022-11-14T01:11:35;93.93;;;55.38;;
55330;SDS011;58851;42.984;20.336;2022-11-14T01:14:04;105.57;;;61.47;;
55330;SDS011;58851;42.984;20.336;2022-11-14T01:16:31;121.10;;;64.63;;
55330;SDS011;58851;42.984;20.336;2022-11-14T01:18:56;129.75;;;77.03;;
55330;SDS011;58851;42.984;20.336;2022-11-14T01:21:22;120.90;;;71.13;;
55330;SDS011;58851;42.984;20.336;2022-11-14T01:23:48;122.43;;;67.32;;
55330;SDS011;58851;42.984;20.336;2022-11-14T01:26:14;82.65;;;48.83;;
55330;SDS011;58851;42.984;20.336;2022-11-14T01:28:40;91.60;;;53.67;;
55330;SDS011;58851;42.984;20.336;2022-11-14T01:31:12;96.80;;;51.38;;
55330;SDS011;58851;42.984;20.336;2022-11-14T01:33:44;99.40;;;54.15;;
55330;SDS011;58851;42.984;20.336;2022-11-14T01:36:13;107.68;;;62.60;;
55330;SDS011;58851;42.984;20.336;2022-11-14T01:38:39;117.43;;;67.57;;
55330;SDS011;58851;42.984;20.336;2022-11-14T01:41:05;100.80;;;62.35;;
55330;SDS011;58851;42.984;20.336;2022-11-14T01:43:38;100.03;;;59.67;;
55330;SDS011;58851;42.984;20.336;2022-11-14T01:46:12;107.03;;;60.22;;
55330;SDS011;58851;42.984;20.336;2022-11-14T01:48:40;102.10;;;56.10;;
55330;SDS011;58851;42.984;20.336;2022-11-14T01:51:13;100.07;;;55.30;;
55330;SDS011;58851;42.984;20.336;2022-11-14T01:53:57;114.68;;;57.47;;
55330;SDS011;58851;42.984;20.336;2022-11-14T01:56:36;92.65;;;51.53;;
55330;SDS011;58851;42.984;20.336;2022-11-14T01:59:09;90.68;;;54.40;;
55330;SDS011;58851;42.984;20.336;2022-11-14T02:01:44;101.80;;;50.78;;
55330;SDS011;58851;42.984;20.336;2022-11-14T02:04:14;107.18;;;54.58;;
55330;SDS011;58851;42.984;20.336;2022-11-14T02:06:44;78.78;;;44.65;;
55330;SDS011;58851;42.984;20.336;2022-11-14T02:09:10;83.78;;;44.17;;
55330;SDS011;58851;42.984;20.336;2022-11-14T02:11:39;72.60;;;44.20;;
55330;SDS011;58851;42.984;20.336;2022-11-14T02:14:08;92.32;;;51.60;;
55330;SDS011;58851;42.984;20.336;2022-11-14T02:16:35;83.50;;;46.70;;
55330;SDS011;58851;42.984;20.336;2022-11-14T02:19:04;112.20;;;50.60;;
55330;SDS011;58851;42.984;20.336;2022-11-14T02:21:30;98.70;;;51.88;;
55330;SDS011;58851;42.984;20.336;2022-11-14T02:23:56;117.72;;;58.10;;
55330;SDS011;58851;42.984;20.336;2022-11-14T02:26:22;132.50;;;54.38;;
55330;SDS011;58851;42.984;20.336;2022-11-14T02:28:48;92.82;;;49.28;;
55330;SDS011;58851;42.984;20.336;2022-11-14T02:31:14;101.57;;;49.03;;
55330;SDS011;58851;42.984;20.336;2022-11-14T02:33:41;100.95;;;50.60;;
55330;SDS011;58851;42.984;20.336;2022-11-14T02:36:07;94.55;;;51.28;;
55330;SDS011;58851;42.984;20.336;2022-11-14T02:38:33;113.28;;;54.75;;
55330;SDS011;58851;42.984;20.336;2022-11-14T02:40:59;93.13;;;48.20;;
55330;SDS011;58851;42.984;20.336;2022-11-14T02:43:25;90.50;;;45.65;;
55330;SDS011;58851;42.984;20.336;2022-11-14T02:45:51;93.07;;;44.80;;
55330;SDS011;58851;42.984;20.336;2022-11-14T02:48:17;78.50;;;39.47;;
55330;SDS011;58851;42.984;20.336;2022-11-14T02:50:43;91.45;;;43.50;;
55330;SDS011;58851;42.984;20.336;2022-11-14T02:53:09;83.43;;;40.40;;
55330;SDS011;58851;42.984;20.336;2022-11-14T02:55:35;102.13;;;44.85;;
55330;SDS011;58851;42.984;20.336;2022-11-14T02:58:00;81.57;;;44.55;;
55330;SDS011;58851;42.984;20.336;2022-11-14T03:00:26;80.68;;;44.60;;
55330;SDS011;58851;42.984;20.336;2022-11-14T03:02:52;117.13;;;52.85;;
55330;SDS011;58851;42.984;20.336;2022-11-14T03:05:18;82.22;;;44.13;;
55330;SDS011;58851;42.984;20.336;2022-11-14T03:07:44;79.78;;;43.63;;
55330;SDS011;58851;42.984;20.336;2022-11-14T03:10:10;78.80;;;44.25;;
55330;SDS011;58851;42.984;20.336;2022-11-14T03:12:37;76.50;;;41.30;;
55330;SDS011;58851;42.984;20.336;2022-11-14T03:15:07;100.93;;;45.55;;
55330;SDS011;58851;42.984;20.336;2022-11-14T03:17:33;82.13;;;44.28;;
55330;SDS011;58851;42.984;20.336;2022-11-14T03:19:59;97.03;;;48.75;;
55330;SDS011;58851;42.984;20.336;2022-11-14T03:22:26;107.15;;;54.42;;
55330;SDS011;58851;42.984;20.336;2022-11-14T03:24:52;110.88;;;53.53;;
55330;SDS011;58851;42.984;20.336;2022-11-14T03:27:18;85.35;;;46.60;;
55330;SDS011;58851;42.984;20.336;2022-11-14T03:29:45;97.20;;;42.97;;
55330;SDS011;58851;42.984;20.336;2022-11-14T03:32:14;106.57;;;45.33;;
55330;SDS011;58851;42.984;20.336;2022-11-14T03:34:40;78.88;;;38.00;;
55330;SDS011;58851;42.984;20.336;2022-11-14T03:37:06;71.10;;;32.28;;
55330;SDS011;58851;42.984;20.336;2022-11-14T03:39:32;74.00;;;34.47;;
55330;SDS011;58851;42.984;20.336;2022-11-14T03:41:58;139.93;;;37.33;;
55330;SDS011;58851;42.984;20.336;2022-11-14T03:44:24;59.33;;;31.98;;
55330;SDS011;58851;42.984;20.336;2022-11-14T03:46:50;69.35;;;31.63;;
55330;SDS011;58851;42.984;20.336;2022-11-14T03:49:16;57.45;;;28.98;;
55330;SDS011;58851;42.984;20.336;2022-11-14T03:51:42;51.83;;;27.42;;
55330;SDS011;58851;42.984;20.336;2022-11-14T03:54:08;65.07;;;27.48;;
55330;SDS011;58851;42.984;20.336;2022-11-14T03:56:34;123.55;;;32.83;;
55330;SDS011;58851;42.984;20.336;2022-11-14T03:59:00;102.85;;;32.38;;
55330;SDS011;58851;42.984;20.336;2022-11-14T04:01:26;69.53;;;26.33;;
55330;SDS011;58851;42.984;20.336;2022-11-14T04:03:53;66.68;;;28.35;;
55330;SDS011;58851;42.984;20.336;2022-11-14T04:06:19;258.33;;;43.72;;
55330;SDS011;58851;42.984;20.336;2022-11-14T04:08:45;64.30;;;34.13;;
55330;SDS011;58851;42.984;20.336;2022-11-14T04:11:10;72.32;;;28.50;;
55330;SDS011;58851;42.984;20.336;2022-11-14T04:13:36;52.80;;;28.95;;
55330;SDS011;58851;42.984;20.336;2022-11-14T04:16:02;51.25;;;27.77;;
55330;SDS011;58851;42.984;20.336;2022-11-14T04:18:28;95.05;;;33.80;;
55330;SDS011;58851;42.984;20.336;2022-11-14T04:20:54;254.63;;;57.28;;
55330;SDS011;58851;42.984;20.336;2022-11-14T04:23:20;139.82;;;43.70;;
55330;SDS011;58851;42.984;20.336;2022-11-14T04:25:46;150.40;;;30.90;;
55330;SDS011;58851;42.984;20.336;2022-11-14T04:28:12;180.77;;;44.92;;
55330;SDS011;58851;42.984;20.336;2022-11-14T04:30:38;134.90;;;48.70;;
55330;SDS011;58851;42.984;20.336;2022-11-14T04:33:04;73.65;;;34.90;;
55330;SDS011;58851;42.984;20.336;2022-11-14T04:35:30;94.05;;;32.65;;
55330;SDS011;58851;42.984;20.336;2022-11-14T04:37:56;131.15;;;37.50;;
55330;SDS011;58851;42.984;20.336;2022-11-14T04:40:22;118.90;;;33.13;;
55330;SDS011;58851;42.984;20.336;2022-11-14T04:42:48;107.53;;;30.17;;
55330;SDS011;58851;42.984;20.336;2022-11-14T04:45:13;97.20;;;28.08;;
55330;SDS011;58851;42.984;20.336;2022-11-14T04:47:42;63.38;;;26.52;;
55330;SDS011;58851;42.984;20.336;2022-11-14T04:50:08;60.53;;;27.95;;
55330;SDS011;58851;42.984;20.336;2022-11-14T04:52:34;66.72;;;25.80;;
55330;SDS011;58851;42.984;20.336;2022-11-14T04:55:00;67.53;;;30.15;;
55330;SDS011;58851;42.984;20.336;2022-11-14T04:57:26;81.22;;;36.30;;
55330;SDS011;58851;42.984;20.336;2022-11-14T04:59:52;53.55;;;28.98;;
55330;SDS011;58851;42.984;20.336;2022-11-14T05:02:18;91.28;;;37.28;;
55330;SDS011;58851;42.984;20.336;2022-11-14T05:04:44;67.75;;;32.88;;
55330;SDS011;58851;42.984;20.336;2022-11-14T05:07:11;68.90;;;34.85;;
55330;SDS011;58851;42.984;20.336;2022-11-14T05:09:38;62.63;;;29.40;;
55330;SDS011;58851;42.984;20.336;2022-11-14T05:12:04;70.25;;;36.08;;
55330;SDS011;58851;42.984;20.336;2022-11-14T05:14:30;91.45;;;40.40;;
55330;SDS011;58851;42.984;20.336;2022-11-14T05:16:56;74.82;;;33.35;;
55330;SDS011;58851;42.984;20.336;2022-11-14T05:19:22;113.93;;;37.13;;
55330;SDS011;58851;42.984;20.336;2022-11-14T05:21:48;48.58;;;25.70;;
55330;SDS011;58851;42.984;20.336;2022-11-14T05:24:14;53.85;;;25.75;;
55330;SDS011;58851;42.984;20.336;2022-11-14T05:26:40;61.05;;;25.38;;
55330;SDS011;58851;42.984;20.336;2022-11-14T05:29:06;53.65;;;30.38;;
55330;SDS011;58851;42.984;20.336;2022-11-14T05:31:32;69.53;;;32.70;;
55330;SDS011;58851;42.984;20.336;2022-11-14T05:33:57;41.03;;;22.52;;
55330;SDS011;58851;42.984;20.336;2022-11-14T05:36:23;45.90;;;26.45;;
55330;SDS011;58851;42.984;20.336;2022-11-14T05:38:49;45.35;;;25.15;;
55330;SDS011;58851;42.984;20.336;2022-11-14T05:41:16;38.50;;;20.95;;
55330;SDS011;58851;42.984;20.336;2022-11-14T05:43:44;40.45;;;23.45;;
55330;SDS011;58851;42.984;20.336;2022-11-14T05:46:10;40.38;;;25.63;;
55330;SDS011;58851;42.984;20.336;2022-11-14T05:48:37;37.42;;;26.00;;
55330;SDS011;58851;42.984;20.336;2022-11-14T05:51:04;56.28;;;29.85;;
55330;SDS011;58851;42.984;20.336;2022-11-14T05:53:31;62.63;;;29.60;;
55330;SDS011;58851;42.984;20.336;2022-11-14T05:56:02;67.82;;;31.02;;
55330;SDS011;58851;42.984;20.336;2022-11-14T05:58:32;40.72;;;23.95;;
55330;SDS011;58851;42.984;20.336;2022-11-14T06:01:03;52.47;;;23.20;;
55330;SDS011;58851;42.984;20.336;2022-11-14T06:03:35;45.95;;;20.50;;
55330;SDS011;58851;42.984;20.336;2022-11-14T06:06:03;46.30;;;20.20;;
55330;SDS011;58851;42.984;20.336;2022-11-14T06:08:31;32.88;;;20.58;;
55330;SDS011;58851;42.984;20.336;2022-11-14T06:11:02;36.75;;;23.20;;
55330;SDS011;58851;42.984;20.336;2022-11-14T06:13:32;53.40;;;24.13;;
55330;SDS011;58851;42.984;20.336;2022-11-14T06:15:59;61.00;;;25.13;;
55330;SDS011;58851;42.984;20.336;2022-11-14T06:18:27;44.30;;;26.65;;
55330;SDS011;58851;42.984;20.336;2022-11-14T06:20:53;37.67;;;21.98;;
55330;SDS011;58851;42.984;20.336;2022-11-14T06:23:24;37.88;;;21.90;;
55330;SDS011;58851;42.984;20.336;2022-11-14T06:25:49;69.85;;;42.03;;
55330;SDS011;58851;42.984;20.336;2022-11-14T06:28:15;49.80;;;30.52;;
55330;SDS011;58851;42.984;20.336;2022-11-14T06:30:41;57.08;;;27.90;;
55330;SDS011;58851;42.984;20.336;2022-11-14T06:33:07;54.85;;;32.75;;
55330;SDS011;58851;42.984;20.336;2022-11-14T06:35:32;57.95;;;31.30;;
55330;SDS011;58851;42.984;20.336;2022-11-14T06:37:59;50.80;;;28.90;;
55330;SDS011;58851;42.984;20.336;2022-11-14T06:40:25;58.75;;;30.10;;
55330;SDS011;58851;42.984;20.336;2022-11-14T06:42:53;67.55;;;32.10;;
55330;SDS011;58851;42.984;20.336;2022-11-14T06:45:20;54.20;;;31.92;;
55330;SDS011;58851;42.984;20.336;2022-11-14T06:47:45;82.28;;;47.92;;
55330;SDS011;58851;42.984;20.336;2022-11-14T06:50:11;64.38;;;38.40;;
55330;SDS011;58851;42.984;20.336;2022-11-14T06:52:37;63.75;;;36.70;;
55330;SDS011;58851;42.984;20.336;2022-11-14T06:55:03;57.05;;;37.85;;
55330;SDS011;58851;42.984;20.336;2022-11-14T06:57:29;45.45;;;28.23;;
55330;SDS011;58851;42.984;20.336;2022-11-14T06:59:55;41.35;;;25.80;;
55330;SDS011;58851;42.984;20.336;2022-11-14T07:02:21;50.35;;;29.23;;
55330;SDS011;58851;42.984;20.336;2022-11-14T07:04:47;44.28;;;28.52;;
55330;SDS011;58851;42.984;20.336;2022-11-14T07:07:13;46.50;;;29.95;;
55330;SDS011;58851;42.984;20.336;2022-11-14T07:09:38;48.92;;;33.42;;
55330;SDS011;58851;42.984;20.336;2022-11-14T07:12:04;51.95;;;33.40;;
55330;SDS011;58851;42.984;20.336;2022-11-14T07:14:31;74.10;;;45.03;;
55330;SDS011;58851;42.984;20.336;2022-11-14T07:16:57;79.32;;;43.25;;
55330;SDS011;58851;42.984;20.336;2022-11-14T07:19:23;95.95;;;53.08;;
55330;SDS011;58851;42.984;20.336;2022-11-14T07:21:48;100.85;;;59.90;;
55330;SDS011;58851;42.984;20.336;2022-11-14T07:24:14;88.95;;;51.80;;
55330;SDS011;58851;42.984;20.336;2022-11-14T07:26:40;75.85;;;43.47;;
55330;SDS011;58851;42.984;20.336;2022-11-14T07:29:06;67.45;;;35.88;;
55330;SDS011;58851;42.984;20.336;2022-11-14T07:31:31;73.13;;;40.85;;
55330;SDS011;58851;42.984;20.336;2022-11-14T07:33:57;61.28;;;36.35;;
55330;SDS011;58851;42.984;20.336;2022-11-14T07:36:23;78.47;;;38.95;;
55330;SDS011;58851;42.984;20.336;2022-11-14T07:38:49;76.15;;;41.22;;
55330;SDS011;58851;42.984;20.336;2022-11-14T07:41:15;46.70;;;28.27;;
55330;SDS011;58851;42.984;20.336;2022-11-14T07:43:41;33.53;;;21.50;;
55330;SDS011;58851;42.984;20.336;2022-11-14T07:46:12;29.88;;;21.10;;
55330;SDS011;58851;42.984;20.336;2022-11-14T07:48:39;53.58;;;32.35;;
55330;SDS011;58851;42.984;20.336;2022-11-14T07:51:06;49.42;;;30.88;;
55330;SDS011;58851;42.984;20.336;2022-11-14T07:53:36;52.45;;;30.23;;
55330;SDS011;58851;42.984;20.336;2022-11-14T07:56:03;44.72;;;26.85;;
55330;SDS011;58851;42.984;20.336;2022-11-14T07:58:30;58.85;;;34.25;;
55330;SDS011;58851;42.984;20.336;2022-11-14T08:00:59;42.83;;;27.38;;
55330;SDS011;58851;42.984;20.336;2022-11-14T08:03:26;52.47;;;30.83;;
55330;SDS011;58851;42.984;20.336;2022-11-14T08:06:02;45.08;;;29.08;;
55330;SDS011;58851;42.984;20.336;2022-11-14T08:08:33;48.22;;;30.45;;
55330;SDS011;58851;42.984;20.336;2022-11-14T08:10:59;63.90;;;35.88;;
55330;SDS011;58851;42.984;20.336;2022-11-14T08:13:25;72.78;;;37.95;;
55330;SDS011;58851;42.984;20.336;2022-11-14T08:15:52;73.35;;;41.38;;
55330;SDS011;58851;42.984;20.336;2022-11-14T08:18:18;66.15;;;41.50;;
55330;SDS011;58851;42.984;20.336;2022-11-14T08:20:44;57.70;;;37.97;;
55330;SDS011;58851;42.984;20.336;2022-11-14T08:23:11;58.42;;;37.20;;
55330;SDS011;58851;42.984;20.336;2022-11-14T08:25:37;55.47;;;36.13;;
55330;SDS011;58851;42.984;20.336;2022-11-14T08:28:03;44.40;;;27.75;;
55330;SDS011;58851;42.984;20.336;2022-11-14T08:30:29;40.97;;;25.55;;
55330;SDS011;58851;42.984;20.336;2022-11-14T08:32:55;49.50;;;30.70;;
55330;SDS011;58851;42.984;20.336;2022-11-14T08:35:21;46.58;;;29.33;;
55330;SDS011;58851;42.984;20.336;2022-11-14T08:37:47;49.83;;;33.35;;
55330;SDS011;58851;42.984;20.336;2022-11-14T08:40:13;53.25;;;30.17;;
55330;SDS011;58851;42.984;20.336;2022-11-14T08:42:39;48.15;;;32.72;;
55330;SDS011;58851;42.984;20.336;2022-11-14T08:45:05;52.08;;;37.08;;
55330;SDS011;58851;42.984;20.336;2022-11-14T08:47:31;54.55;;;33.75;;
55330;SDS011;58851;42.984;20.336;2022-11-14T08:49:57;46.10;;;30.10;;
55330;SDS011;58851;42.984;20.336;2022-11-14T08:52:23;52.70;;;32.95;;
55330;SDS011;58851;42.984;20.336;2022-11-14T08:54:49;87.43;;;53.45;;
55330;SDS011;58851;42.984;20.336;2022-11-14T08:57:15;74.13;;;43.00;;
55330;SDS011;58851;42.984;20.336;2022-11-14T08:59:41;59.50;;;38.33;;
55330;SDS011;58851;42.984;20.336;2022-11-14T09:02:10;84.65;;;58.00;;
55330;SDS011;58851;42.984;20.336;2022-11-14T09:04:37;65.50;;;41.85;;
55330;SDS011;58851;42.984;20.336;2022-11-14T09:07:04;68.15;;;44.88;;
55330;SDS011;58851;42.984;20.336;2022-11-14T09:09:30;83.30;;;50.58;;
55330;SDS011;58851;42.984;20.336;2022-11-14T09:11:59;68.75;;;44.13;;
55330;SDS011;58851;42.984;20.336;2022-11-14T09:14:24;66.10;;;42.40;;
55330;SDS011;58851;42.984;20.336;2022-11-14T09:16:50;61.05;;;38.90;;
55330;SDS011;58851;42.984;20.336;2022-11-14T09:19:16;66.43;;;43.33;;
55330;SDS011;58851;42.984;20.336;2022-11-14T09:21:42;81.28;;;51.40;;
55330;SDS011;58851;42.984;20.336;2022-11-14T09:24:08;71.55;;;47.95;;
55330;SDS011;58851;42.984;20.336;2022-11-14T09:26:34;77.15;;;51.08;;
55330;SDS011;58851;42.984;20.336;2022-11-14T09:29:00;72.63;;;46.05;;
55330;SDS011;58851;42.984;20.336;2022-11-14T09:31:26;65.70;;;42.67;;
55330;SDS011;58851;42.984;20.336;2022-11-14T09:33:52;58.70;;;37.03;;
55330;SDS011;58851;42.984;20.336;2022-11-14T09:36:17;61.20;;;36.63;;
55330;SDS011;58851;42.984;20.336;2022-11-14T09:38:43;89.18;;;56.13;;
55330;SDS011;58851;42.984;20.336;2022-11-14T09:46:37;67.40;;;42.40;;
55330;SDS011;58851;42.984;20.336;2022-11-14T09:49:07;80.57;;;50.80;;
55330;SDS011;58851;42.984;20.336;2022-11-14T09:51:59;77.03;;;47.60;;
55330;SDS011;58851;42.984;20.336;2022-11-14T09:54:39;71.45;;;42.20;;
55330;SDS011;58851;42.984;20.336;2022-11-14T09:57:15;70.78;;;47.00;;
55330;SDS011;58851;42.984;20.336;2022-11-14T09:59:42;67.43;;;44.20;;
55330;SDS011;58851;42.984;20.336;2022-11-14T10:07:58;59.40;;;40.15;;
55330;SDS011;58851;42.984;20.336;2022-11-14T10:10:43;53.78;;;37.78;;
55330;SDS011;58851;42.984;20.336;2022-11-14T10:16:29;66.68;;;43.35;;
55330;SDS011;58851;42.984;20.336;2022-11-14T10:24:54;67.23;;;42.20;;
55330;SDS011;58851;42.984;20.336;2022-11-14T10:30:11;47.85;;;34.00;;
55330;SDS011;58851;42.984;20.336;2022-11-14T10:38:52;53.63;;;33.85;;
55330;SDS011;58851;42.984;20.336;2022-11-14T10:41:31;57.22;;;38.15;;
55330;SDS011;58851;42.984;20.336;2022-11-14T10:43:58;55.75;;;36.08;;
55330;SDS011;58851;42.984;20.336;2022-11-14T10:48:56;60.72;;;39.80;;
55330;SDS011;58851;42.984;20.336;2022-11-14T10:54:18;47.10;;;30.60;;
55330;SDS011;58851;42.984;20.336;2022-11-14T10:56:58;37.53;;;26.80;;
55330;SDS011;58851;42.984;20.336;2022-11-14T10:59:23;58.55;;;38.22;;
55330;SDS011;58851;42.984;20.336;2022-11-14T11:01:52;50.30;;;33.33;;
55330;SDS011;58851;42.984;20.336;2022-11-14T11:06:52;62.10;;;41.33;;
55330;SDS011;58851;42.984;20.336;2022-11-14T11:09:23;41.40;;;28.67;;
55330;SDS011;58851;42.984;20.336;2022-11-14T11:12:17;40.67;;;27.65;;
55330;SDS011;58851;42.984;20.336;2022-11-14T11:14:49;37.58;;;27.65;;
55330;SDS011;58851;42.984;20.336;2022-11-14T11:18:22;33.97;;;26.45;;
55330;SDS011;58851;42.984;20.336;2022-11-14T11:20:37;36.22;;;26.95;;
55330;SDS011;58851;42.984;20.336;2022-11-14T11:25:31;33.90;;;23.75;;
55330;SDS011;58851;42.984;20.336;2022-11-14T11:30:31;45.35;;;29.08;;
55330;SDS011;58851;42.984;20.336;2022-11-14T11:33:58;46.80;;;32.85;;
55330;SDS011;58851;42.984;20.336;2022-11-14T11:38:41;42.63;;;30.00;;
55330;SDS011;58851;42.984;20.336;2022-11-14T11:49:23;48.55;;;36.67;;
55330;SDS011;58851;42.984;20.336;2022-11-14T11:52:21;48.67;;;33.78;;
55330;SDS011;58851;42.984;20.336;2022-11-14T11:54:59;50.80;;;36.10;;
55330;SDS011;58851;42.984;20.336;2022-11-14T11:57:55;54.88;;;40.92;;
55330;SDS011;58851;42.984;20.336;2022-11-14T12:00:30;52.55;;;37.70;;
55330;SDS011;58851;42.984;20.336;2022-11-14T12:02:56;47.60;;;33.55;;
55330;SDS011;58851;42.984;20.336;2022-11-14T12:08:56;40.80;;;30.08;;
55330;SDS011;58851;42.984;20.336;2022-11-14T12:11:21;38.75;;;26.17;;
55330;SDS011;58851;42.984;20.336;2022-11-14T12:19:11;35.60;;;26.13;;
55330;SDS011;58851;42.984;20.336;2022-11-14T12:24:56;32.22;;;23.38;;
55330;SDS011;58851;42.984;20.336;2022-11-14T12:30:25;30.08;;;19.35;;
55330;SDS011;58851;42.984;20.336;2022-11-14T12:35:25;92.07;;;49.30;;
55330;SDS011;58851;42.984;20.336;2022-11-14T12:37:54;50.03;;;28.88;;
55330;SDS011;58851;42.984;20.336;2022-11-14T12:40:30;150.40;;;72.43;;
55330;SDS011;58851;42.984;20.336;2022-11-14T12:42:57;115.47;;;69.68;;
55330;SDS011;58851;42.984;20.336;2022-11-14T12:48:13;96.53;;;56.28;;
55330;SDS011;58851;42.984;20.336;2022-11-14T12:50:40;95.83;;;55.13;;
55330;SDS011;58851;42.984;20.336;2022-11-14T12:56:19;35.55;;;23.33;;
55330;SDS011;58851;42.984;20.336;2022-11-14T13:10:10;73.45;;;51.53;;
55330;SDS011;58851;42.984;20.336;2022-11-14T13:12:37;73.15;;;50.47;;
55330;SDS011;58851;42.984;20.336;2022-11-14T13:15:25;55.00;;;42.70;;
55330;SDS011;58851;42.984;20.336;2022-11-14T13:24:04;159.27;;;99.65;;
55330;SDS011;58851;42.984;20.336;2022-11-14T13:28:56;30.83;;;21.35;;
55330;SDS011;58851;42.984;20.336;2022-11-14T13:37:18;41.60;;;31.52;;
55330;SDS011;58851;42.984;20.336;2022-11-14T13:40:12;55.72;;;30.75;;
55330;SDS011;58851;42.984;20.336;2022-11-14T13:45:51;40.90;;;30.10;;
55330;SDS011;58851;42.984;20.336;2022-11-14T13:51:11;69.35;;;45.33;;
55330;SDS011;58851;42.984;20.336;2022-11-14T13:53:41;94.18;;;58.95;;
55330;SDS011;58851;42.984;20.336;2022-11-14T13:56:22;99.10;;;64.40;;
55330;SDS011;58851;42.984;20.336;2022-11-14T14:07:23;250.88;;;142.70;;
55330;SDS011;58851;42.984;20.336;2022-11-14T14:19:21;108.55;;;64.95;;
55330;SDS011;58851;42.984;20.336;2022-11-14T14:30:34;152.85;;;95.57;;
55330;SDS011;58851;42.984;20.336;2022-11-14T14:35:33;161.00;;;107.07;;
55330;SDS011;58851;42.984;20.336;2022-11-14T14:38:00;165.52;;;104.45;;
55330;SDS011;58851;42.984;20.336;2022-11-14T14:40:31;172.13;;;106.72;;
55330;SDS011;58851;42.984;20.336;2022-11-14T14:42:59;182.25;;;114.03;;
55330;SDS011;58851;42.984;20.336;2022-11-14T14:45:26;163.32;;;108.88;;
55330;SDS011;58851;42.984;20.336;2022-11-14T14:48:13;202.75;;;122.03;;
55330;SDS011;58851;42.984;20.336;2022-11-14T14:50:47;171.73;;;100.07;;
55330;SDS011;58851;42.984;20.336;2022-11-14T14:53:22;169.23;;;100.05;;
55330;SDS011;58851;42.984;20.336;2022-11-14T14:55:50;172.93;;;109.75;;
55330;SDS011;58851;42.984;20.336;2022-11-14T15:03:24;184.02;;;125.78;;
55330;SDS011;58851;42.984;20.336;2022-11-14T15:05:58;211.48;;;127.68;;
55330;SDS011;58851;42.984;20.336;2022-11-14T15:08:25;206.80;;;125.50;;
55330;SDS011;58851;42.984;20.336;2022-11-14T15:10:53;181.85;;;117.00;;
55330;SDS011;58851;42.984;20.336;2022-11-14T15:13:25;177.77;;;126.38;;
55330;SDS011;58851;42.984;20.336;2022-11-14T15:15:53;195.38;;;124.97;;
55330;SDS011;58851;42.984;20.336;2022-11-14T15:18:23;200.02;;;125.50;;
55330;SDS011;58851;42.984;20.336;2022-11-14T15:21:06;180.68;;;118.60;;
55330;SDS011;58851;42.984;20.336;2022-11-14T15:23:33;179.20;;;115.85;;
55330;SDS011;58851;42.984;20.336;2022-11-14T15:26:04;210.48;;;130.25;;
55330;SDS011;58851;42.984;20.336;2022-11-14T15:28:44;210.18;;;128.63;;
55330;SDS011;58851;42.984;20.336;2022-11-14T15:31:17;191.82;;;128.10;;
55330;SDS011;58851;42.984;20.336;2022-11-14T15:33:45;209.73;;;141.32;;
55330;SDS011;58851;42.984;20.336;2022-11-14T15:36:25;216.82;;;138.73;;
55330;SDS011;58851;42.984;20.336;2022-11-14T15:39:01;207.60;;;139.00;;
55330;SDS011;58851;42.984;20.336;2022-11-14T15:41:27;206.68;;;136.98;;
55330;SDS011;58851;42.984;20.336;2022-11-14T15:43:55;219.23;;;140.93;;
55330;SDS011;58851;42.984;20.336;2022-11-14T15:49:20;225.18;;;140.73;;
55330;SDS011;58851;42.984;20.336;2022-11-14T15:51:50;225.45;;;144.40;;
55330;SDS011;58851;42.984;20.336;2022-11-14T15:54:19;232.07;;;146.93;;
55330;SDS011;58851;42.984;20.336;2022-11-14T15:56:45;227.07;;;147.65;;
55330;SDS011;58851;42.984;20.336;2022-11-14T15:59:11;222.73;;;148.93;;
55330;SDS011;58851;42.984;20.336;2022-11-14T16:01:37;230.65;;;152.57;;
55330;SDS011;58851;42.984;20.336;2022-11-14T16:04:03;223.95;;;145.35;;
55330;SDS011;58851;42.984;20.336;2022-11-14T16:06:29;215.43;;;139.93;;
55330;SDS011;58851;42.984;20.336;2022-11-14T16:08:57;255.25;;;150.50;;
55330;SDS011;58851;42.984;20.336;2022-11-14T16:11:22;256.63;;;169.15;;
55330;SDS011;58851;42.984;20.336;2022-11-14T16:13:48;305.17;;;199.13;;
55330;SDS011;58851;42.984;20.336;2022-11-14T16:16:14;259.77;;;173.13;;
55330;SDS011;58851;42.984;20.336;2022-11-14T16:18:40;248.55;;;173.00;;
55330;SDS011;58851;42.984;20.336;2022-11-14T16:21:08;263.30;;;178.85;;
55330;SDS011;58851;42.984;20.336;2022-11-14T16:23:40;299.00;;;201.00;;
55330;SDS011;58851;42.984;20.336;2022-11-14T16:26:05;275.90;;;189.65;;
55330;SDS011;58851;42.984;20.336;2022-11-14T16:28:31;291.48;;;192.95;;
55330;SDS011;58851;42.984;20.336;2022-11-14T16:30:57;278.83;;;190.40;;
55330;SDS011;58851;42.984;20.336;2022-11-14T16:33:23;332.67;;;216.35;;
55330;SDS011;58851;42.984;20.336;2022-11-14T16:35:48;453.42;;;293.50;;